sensor_id;sensor_type;location;lat;lon;timestamp;P1;durP1;ratioP1;P2;durP2;ratioP2
16416;SDS011;8317;52.186;5.688;2022-10-16T00:01:13;10.10;;;3.95;;
16416;SDS011;8317;52.186;5.688;2022-10-16T00:03:42;7.88;;;3.10;;
16416;SDS011;8317;52.186;5.688;2022-10-16T00:06:10;5.78;;;3.30;;
16416;SDS011;8317;52.186;5.688;2022-10-16T00:08:38;7.65;;;3.10;;
16416;SDS011;8317;52.186;5.688;2022-10-16T00:11:06;8.02;;;3.03;;
16416;SDS011;8317;52.186;5.688;2022-10-16T00:13:36;7.72;;;2.90;;
16416;SDS011;8317;52.186;5.688;2022-10-16T00:16:04;5.53;;;2.80;;
16416;SDS011;8317;52.186;5.688;2022-10-16T00:18:33;6.95;;;3.28;;
16416;SDS011;8317;52.186;5.688;2022-10-16T00:21:01;4.50;;;3.15;;
16416;SDS011;8317;52.186;5.688;2022-10-16T00:23:30;8.40;;;3.80;;
16416;SDS011;8317;52.186;5.688;2022-10-16T00:25:58;10.75;;;3.60;;
16416;SDS011;8317;52.186;5.688;2022-10-16T00:28:26;10.18;;;4.57;;
16416;SDS011;8317;52.186;5.688;2022-10-16T00:30:55;5.45;;;4.00;;
16416;SDS011;8317;52.186;5.688;2022-10-16T00:33:22;10.27;;;4.93;;
16416;SDS011;8317;52.186;5.688;2022-10-16T00:35:49;6.95;;;3.92;;
16416;SDS011;8317;52.186;5.688;2022-10-16T00:38:16;6.30;;;3.75;;
16416;SDS011;8317;52.186;5.688;2022-10-16T00:40:43;6.53;;;3.67;;
16416;SDS011;8317;52.186;5.688;2022-10-16T00:43:13;6.03;;;3.13;;
16416;SDS011;8317;52.186;5.688;2022-10-16T00:46:01;7.50;;;3.20;;
16416;SDS011;8317;52.186;5.688;2022-10-16T00:48:29;9.98;;;3.83;;
16416;SDS011;8317;52.186;5.688;2022-10-16T00:50:57;5.40;;;3.40;;
16416;SDS011;8317;52.186;5.688;2022-10-16T00:53:24;6.82;;;3.00;;
16416;SDS011;8317;52.186;5.688;2022-10-16T00:55:52;4.18;;;2.78;;
16416;SDS011;8317;52.186;5.688;2022-10-16T00:58:19;5.20;;;3.13;;
16416;SDS011;8317;52.186;5.688;2022-10-16T01:00:46;9.50;;;3.75;;
16416;SDS011;8317;52.186;5.688;2022-10-16T01:03:26;4.95;;;3.40;;
16416;SDS011;8317;52.186;5.688;2022-10-16T01:05:57;7.72;;;3.38;;
16416;SDS011;8317;52.186;5.688;2022-10-16T01:08:38;6.32;;;3.08;;
16416;SDS011;8317;52.186;5.688;2022-10-16T01:11:12;7.00;;;2.97;;
16416;SDS011;8317;52.186;5.688;2022-10-16T01:13:46;5.32;;;2.88;;
16416;SDS011;8317;52.186;5.688;2022-10-16T01:16:17;8.43;;;3.25;;
16416;SDS011;8317;52.186;5.688;2022-10-16T01:18:53;6.50;;;3.10;;
16416;SDS011;8317;52.186;5.688;2022-10-16T01:21:24;5.38;;;3.15;;
16416;SDS011;8317;52.186;5.688;2022-10-16T01:23:58;5.60;;;2.95;;
16416;SDS011;8317;52.186;5.688;2022-10-16T01:26:36;3.80;;;3.20;;
16416;SDS011;8317;52.186;5.688;2022-10-16T01:29:21;5.97;;;2.95;;
16416;SDS011;8317;52.186;5.688;2022-10-16T01:31:52;9.43;;;3.05;;
16416;SDS011;8317;52.186;5.688;2022-10-16T01:34:23;5.13;;;3.08;;
16416;SDS011;8317;52.186;5.688;2022-10-16T01:36:57;5.47;;;3.53;;
16416;SDS011;8317;52.186;5.688;2022-10-16T01:39:31;4.45;;;3.38;;
16416;SDS011;8317;52.186;5.688;2022-10-16T01:42:03;4.40;;;3.00;;
16416;SDS011;8317;52.186;5.688;2022-10-16T01:44:35;7.88;;;3.63;;
16416;SDS011;8317;52.186;5.688;2022-10-16T01:47:05;5.13;;;3.25;;
16416;SDS011;8317;52.186;5.688;2022-10-16T01:49:35;5.28;;;2.97;;
16416;SDS011;8317;52.186;5.688;2022-10-16T01:52:05;5.93;;;3.20;;
16416;SDS011;8317;52.186;5.688;2022-10-16T01:54:35;5.22;;;3.20;;
16416;SDS011;8317;52.186;5.688;2022-10-16T01:57:03;9.50;;;3.42;;
16416;SDS011;8317;52.186;5.688;2022-10-16T01:59:32;7.55;;;3.40;;
16416;SDS011;8317;52.186;5.688;2022-10-16T02:02:07;5.25;;;3.28;;
16416;SDS011;8317;52.186;5.688;2022-10-16T02:04:37;6.97;;;3.45;;
16416;SDS011;8317;52.186;5.688;2022-10-16T02:07:07;12.30;;;3.83;;
16416;SDS011;8317;52.186;5.688;2022-10-16T02:09:34;7.68;;;4.05;;
16416;SDS011;8317;52.186;5.688;2022-10-16T02:12:03;4.90;;;3.53;;
16416;SDS011;8317;52.186;5.688;2022-10-16T02:14:38;8.95;;;3.80;;
16416;SDS011;8317;52.186;5.688;2022-10-16T02:17:10;4.90;;;3.75;;
16416;SDS011;8317;52.186;5.688;2022-10-16T02:19:38;7.30;;;3.40;;
16416;SDS011;8317;52.186;5.688;2022-10-16T02:22:05;3.97;;;3.42;;
16416;SDS011;8317;52.186;5.688;2022-10-16T02:24:35;5.57;;;3.55;;
16416;SDS011;8317;52.186;5.688;2022-10-16T02:27:05;3.75;;;3.22;;
16416;SDS011;8317;52.186;5.688;2022-10-16T02:29:38;6.47;;;4.03;;
16416;SDS011;8317;52.186;5.688;2022-10-16T02:32:10;6.05;;;3.30;;
16416;SDS011;8317;52.186;5.688;2022-10-16T02:34:40;9.18;;;3.90;;
16416;SDS011;8317;52.186;5.688;2022-10-16T02:37:08;4.32;;;3.08;;
16416;SDS011;8317;52.186;5.688;2022-10-16T02:39:35;4.88;;;3.60;;
16416;SDS011;8317;52.186;5.688;2022-10-16T02:42:04;8.52;;;3.60;;
16416;SDS011;8317;52.186;5.688;2022-10-16T02:44:38;5.30;;;3.92;;
16416;SDS011;8317;52.186;5.688;2022-10-16T02:47:05;7.95;;;4.07;;
16416;SDS011;8317;52.186;5.688;2022-10-16T02:49:32;6.65;;;3.60;;
16416;SDS011;8317;52.186;5.688;2022-10-16T02:51:58;5.00;;;3.75;;
16416;SDS011;8317;52.186;5.688;2022-10-16T02:54:25;6.57;;;3.65;;
16416;SDS011;8317;52.186;5.688;2022-10-16T02:56:52;6.30;;;3.70;;
16416;SDS011;8317;52.186;5.688;2022-10-16T02:59:19;5.97;;;3.72;;
16416;SDS011;8317;52.186;5.688;2022-10-16T03:01:47;6.63;;;4.05;;
16416;SDS011;8317;52.186;5.688;2022-10-16T03:04:14;4.93;;;3.50;;
16416;SDS011;8317;52.186;5.688;2022-10-16T03:06:41;6.70;;;3.92;;
16416;SDS011;8317;52.186;5.688;2022-10-16T03:09:08;5.75;;;4.25;;
16416;SDS011;8317;52.186;5.688;2022-10-16T03:11:34;6.90;;;3.97;;
16416;SDS011;8317;52.186;5.688;2022-10-16T03:14:01;4.82;;;3.40;;
16416;SDS011;8317;52.186;5.688;2022-10-16T03:16:28;4.80;;;3.50;;
16416;SDS011;8317;52.186;5.688;2022-10-16T03:18:56;5.70;;;3.65;;
16416;SDS011;8317;52.186;5.688;2022-10-16T03:21:23;3.58;;;3.25;;
16416;SDS011;8317;52.186;5.688;2022-10-16T03:23:50;7.45;;;4.30;;
16416;SDS011;8317;52.186;5.688;2022-10-16T03:26:17;4.88;;;3.45;;
16416;SDS011;8317;52.186;5.688;2022-10-16T03:28:44;5.57;;;3.85;;
16416;SDS011;8317;52.186;5.688;2022-10-16T03:31:11;5.38;;;3.40;;
16416;SDS011;8317;52.186;5.688;2022-10-16T03:33:38;7.15;;;3.70;;
16416;SDS011;8317;52.186;5.688;2022-10-16T03:36:06;7.03;;;3.90;;
16416;SDS011;8317;52.186;5.688;2022-10-16T03:38:33;4.97;;;3.78;;
16416;SDS011;8317;52.186;5.688;2022-10-16T03:41:00;4.75;;;3.67;;
16416;SDS011;8317;52.186;5.688;2022-10-16T03:43:26;4.32;;;3.88;;
16416;SDS011;8317;52.186;5.688;2022-10-16T03:45:53;4.88;;;4.00;;
16416;SDS011;8317;52.186;5.688;2022-10-16T03:48:20;6.13;;;3.90;;
16416;SDS011;8317;52.186;5.688;2022-10-16T03:50:47;6.65;;;3.90;;
16416;SDS011;8317;52.186;5.688;2022-10-16T03:53:16;5.90;;;3.65;;
16416;SDS011;8317;52.186;5.688;2022-10-16T03:55:44;7.68;;;3.83;;
16416;SDS011;8317;52.186;5.688;2022-10-16T03:58:11;5.82;;;3.72;;
16416;SDS011;8317;52.186;5.688;2022-10-16T04:00:39;8.10;;;3.65;;
16416;SDS011;8317;52.186;5.688;2022-10-16T04:03:06;3.58;;;3.25;;
16416;SDS011;8317;52.186;5.688;2022-10-16T04:05:33;3.72;;;3.35;;
16416;SDS011;8317;52.186;5.688;2022-10-16T04:08:00;7.03;;;4.07;;
16416;SDS011;8317;52.186;5.688;2022-10-16T04:10:28;5.53;;;3.92;;
16416;SDS011;8317;52.186;5.688;2022-10-16T04:12:55;6.28;;;3.63;;
16416;SDS011;8317;52.186;5.688;2022-10-16T04:15:23;4.05;;;3.13;;
16416;SDS011;8317;52.186;5.688;2022-10-16T04:17:51;4.00;;;3.25;;
16416;SDS011;8317;52.186;5.688;2022-10-16T04:20:18;8.95;;;3.80;;
16416;SDS011;8317;52.186;5.688;2022-10-16T04:22:45;7.28;;;3.70;;
16416;SDS011;8317;52.186;5.688;2022-10-16T04:25:12;5.75;;;3.10;;
16416;SDS011;8317;52.186;5.688;2022-10-16T04:27:40;5.32;;;3.58;;
16416;SDS011;8317;52.186;5.688;2022-10-16T04:30:07;2.92;;;2.67;;
16416;SDS011;8317;52.186;5.688;2022-10-16T04:32:34;5.03;;;3.03;;
16416;SDS011;8317;52.186;5.688;2022-10-16T04:35:01;4.15;;;3.72;;
16416;SDS011;8317;52.186;5.688;2022-10-16T04:37:28;7.43;;;3.30;;
16416;SDS011;8317;52.186;5.688;2022-10-16T04:39:55;7.90;;;3.03;;
16416;SDS011;8317;52.186;5.688;2022-10-16T04:42:22;5.70;;;3.17;;
16416;SDS011;8317;52.186;5.688;2022-10-16T04:44:51;6.15;;;3.10;;
16416;SDS011;8317;52.186;5.688;2022-10-16T04:47:18;3.55;;;3.03;;
16416;SDS011;8317;52.186;5.688;2022-10-16T04:49:45;4.28;;;2.97;;
16416;SDS011;8317;52.186;5.688;2022-10-16T04:52:11;4.05;;;3.17;;
16416;SDS011;8317;52.186;5.688;2022-10-16T04:54:38;4.60;;;3.00;;
16416;SDS011;8317;52.186;5.688;2022-10-16T04:57:05;4.30;;;3.00;;
16416;SDS011;8317;52.186;5.688;2022-10-16T04:59:32;4.18;;;2.85;;
16416;SDS011;8317;52.186;5.688;2022-10-16T05:02:00;6.00;;;3.15;;
16416;SDS011;8317;52.186;5.688;2022-10-16T05:04:27;6.45;;;3.13;;
16416;SDS011;8317;52.186;5.688;2022-10-16T05:06:54;6.53;;;3.15;;
16416;SDS011;8317;52.186;5.688;2022-10-16T05:09:21;7.38;;;5.65;;
16416;SDS011;8317;52.186;5.688;2022-10-16T05:11:48;3.88;;;3.28;;
16416;SDS011;8317;52.186;5.688;2022-10-16T05:14:15;6.82;;;3.67;;
16416;SDS011;8317;52.186;5.688;2022-10-16T05:16:42;6.35;;;4.00;;
16416;SDS011;8317;52.186;5.688;2022-10-16T05:19:10;5.20;;;3.85;;
16416;SDS011;8317;52.186;5.688;2022-10-16T05:21:37;4.65;;;3.40;;
16416;SDS011;8317;52.186;5.688;2022-10-16T05:24:04;5.28;;;3.53;;
16416;SDS011;8317;52.186;5.688;2022-10-16T05:26:30;3.97;;;3.40;;
16416;SDS011;8317;52.186;5.688;2022-10-16T05:28:57;5.93;;;3.50;;
16416;SDS011;8317;52.186;5.688;2022-10-16T05:31:24;4.68;;;3.42;;
16416;SDS011;8317;52.186;5.688;2022-10-16T05:33:51;7.60;;;3.75;;
16416;SDS011;8317;52.186;5.688;2022-10-16T05:36:19;4.25;;;3.70;;
16416;SDS011;8317;52.186;5.688;2022-10-16T05:38:50;7.50;;;4.43;;
16416;SDS011;8317;52.186;5.688;2022-10-16T05:41:17;6.25;;;3.60;;
16416;SDS011;8317;52.186;5.688;2022-10-16T05:43:46;4.70;;;3.40;;
16416;SDS011;8317;52.186;5.688;2022-10-16T05:46:13;6.88;;;3.80;;
16416;SDS011;8317;52.186;5.688;2022-10-16T05:48:40;6.82;;;4.47;;
16416;SDS011;8317;52.186;5.688;2022-10-16T05:51:10;8.95;;;3.95;;
16416;SDS011;8317;52.186;5.688;2022-10-16T05:53:41;6.45;;;3.88;;
16416;SDS011;8317;52.186;5.688;2022-10-16T05:56:09;9.07;;;4.07;;
16416;SDS011;8317;52.186;5.688;2022-10-16T05:58:37;9.35;;;4.35;;
16416;SDS011;8317;52.186;5.688;2022-10-16T06:01:06;11.95;;;4.85;;
16416;SDS011;8317;52.186;5.688;2022-10-16T06:03:36;7.72;;;4.88;;
16416;SDS011;8317;52.186;5.688;2022-10-16T06:06:07;10.68;;;4.47;;
16416;SDS011;8317;52.186;5.688;2022-10-16T06:08:34;7.85;;;4.93;;
16416;SDS011;8317;52.186;5.688;2022-10-16T06:11:03;5.47;;;4.38;;
16416;SDS011;8317;52.186;5.688;2022-10-16T06:13:31;7.32;;;4.30;;
16416;SDS011;8317;52.186;5.688;2022-10-16T06:15:59;7.40;;;4.53;;
16416;SDS011;8317;52.186;5.688;2022-10-16T06:18:27;5.65;;;4.25;;
16416;SDS011;8317;52.186;5.688;2022-10-16T06:20:54;11.40;;;4.55;;
16416;SDS011;8317;52.186;5.688;2022-10-16T06:23:22;7.13;;;4.03;;
16416;SDS011;8317;52.186;5.688;2022-10-16T06:25:49;7.63;;;3.92;;
16416;SDS011;8317;52.186;5.688;2022-10-16T06:28:17;4.80;;;3.85;;
16416;SDS011;8317;52.186;5.688;2022-10-16T06:30:44;5.82;;;3.83;;
16416;SDS011;8317;52.186;5.688;2022-10-16T06:33:11;7.80;;;4.80;;
16416;SDS011;8317;52.186;5.688;2022-10-16T06:35:38;5.00;;;4.05;;
16416;SDS011;8317;52.186;5.688;2022-10-16T06:38:05;5.30;;;4.05;;
16416;SDS011;8317;52.186;5.688;2022-10-16T06:40:32;5.28;;;3.67;;
16416;SDS011;8317;52.186;5.688;2022-10-16T06:42:59;5.88;;;3.50;;
16416;SDS011;8317;52.186;5.688;2022-10-16T06:45:27;9.35;;;3.97;;
16416;SDS011;8317;52.186;5.688;2022-10-16T06:47:54;8.35;;;4.05;;
16416;SDS011;8317;52.186;5.688;2022-10-16T06:50:21;6.90;;;3.65;;
16416;SDS011;8317;52.186;5.688;2022-10-16T06:52:48;7.60;;;3.80;;
16416;SDS011;8317;52.186;5.688;2022-10-16T06:55:15;5.97;;;3.60;;
16416;SDS011;8317;52.186;5.688;2022-10-16T06:57:43;8.20;;;3.55;;
16416;SDS011;8317;52.186;5.688;2022-10-16T07:00:10;10.75;;;3.65;;
16416;SDS011;8317;52.186;5.688;2022-10-16T07:02:39;6.53;;;3.63;;
16416;SDS011;8317;52.186;5.688;2022-10-16T07:05:06;5.50;;;3.88;;
16416;SDS011;8317;52.186;5.688;2022-10-16T07:07:33;5.35;;;3.80;;
16416;SDS011;8317;52.186;5.688;2022-10-16T07:10:00;5.70;;;3.95;;
16416;SDS011;8317;52.186;5.688;2022-10-16T07:12:26;8.48;;;3.83;;
16416;SDS011;8317;52.186;5.688;2022-10-16T07:14:53;5.78;;;3.95;;
16416;SDS011;8317;52.186;5.688;2022-10-16T07:17:21;5.00;;;3.70;;
16416;SDS011;8317;52.186;5.688;2022-10-16T07:19:49;5.65;;;3.60;;
16416;SDS011;8317;52.186;5.688;2022-10-16T07:22:18;4.10;;;3.70;;
16416;SDS011;8317;52.186;5.688;2022-10-16T07:24:45;9.15;;;5.07;;
16416;SDS011;8317;52.186;5.688;2022-10-16T07:27:12;11.40;;;7.07;;
16416;SDS011;8317;52.186;5.688;2022-10-16T07:29:40;13.27;;;7.22;;
16416;SDS011;8317;52.186;5.688;2022-10-16T07:32:07;6.78;;;4.40;;
16416;SDS011;8317;52.186;5.688;2022-10-16T07:34:34;9.88;;;4.25;;
16416;SDS011;8317;52.186;5.688;2022-10-16T07:37:02;3.90;;;3.50;;
16416;SDS011;8317;52.186;5.688;2022-10-16T07:39:29;6.85;;;3.67;;
16416;SDS011;8317;52.186;5.688;2022-10-16T07:41:56;5.63;;;3.38;;
16416;SDS011;8317;52.186;5.688;2022-10-16T07:44:23;5.30;;;3.50;;
16416;SDS011;8317;52.186;5.688;2022-10-16T07:46:50;6.80;;;3.10;;
16416;SDS011;8317;52.186;5.688;2022-10-16T07:49:17;7.22;;;3.38;;
16416;SDS011;8317;52.186;5.688;2022-10-16T07:51:44;5.60;;;3.45;;
16416;SDS011;8317;52.186;5.688;2022-10-16T07:54:12;8.30;;;5.05;;
16416;SDS011;8317;52.186;5.688;2022-10-16T07:56:39;5.82;;;3.60;;
16416;SDS011;8317;52.186;5.688;2022-10-16T07:59:06;5.65;;;3.42;;
16416;SDS011;8317;52.186;5.688;2022-10-16T08:01:33;5.80;;;2.92;;
16416;SDS011;8317;52.186;5.688;2022-10-16T08:04:00;3.67;;;2.88;;
16416;SDS011;8317;52.186;5.688;2022-10-16T08:06:26;6.43;;;3.47;;
16416;SDS011;8317;52.186;5.688;2022-10-16T08:08:54;4.00;;;3.17;;
16416;SDS011;8317;52.186;5.688;2022-10-16T08:11:23;4.18;;;3.55;;
16416;SDS011;8317;52.186;5.688;2022-10-16T08:13:51;3.35;;;2.97;;
16416;SDS011;8317;52.186;5.688;2022-10-16T08:16:17;5.20;;;3.33;;
16416;SDS011;8317;52.186;5.688;2022-10-16T08:18:44;5.47;;;3.33;;
16416;SDS011;8317;52.186;5.688;2022-10-16T08:21:12;5.43;;;2.92;;
16416;SDS011;8317;52.186;5.688;2022-10-16T08:23:40;8.30;;;3.45;;
16416;SDS011;8317;52.186;5.688;2022-10-16T08:26:08;5.88;;;3.05;;
16416;SDS011;8317;52.186;5.688;2022-10-16T08:28:36;4.72;;;2.78;;
16416;SDS011;8317;52.186;5.688;2022-10-16T08:31:04;6.63;;;3.08;;
16416;SDS011;8317;52.186;5.688;2022-10-16T08:33:32;6.13;;;3.45;;
16416;SDS011;8317;52.186;5.688;2022-10-16T08:36:00;5.93;;;2.97;;
16416;SDS011;8317;52.186;5.688;2022-10-16T08:38:27;5.72;;;2.65;;
16416;SDS011;8317;52.186;5.688;2022-10-16T08:40:54;5.63;;;2.58;;
16416;SDS011;8317;52.186;5.688;2022-10-16T08:43:43;3.20;;;2.90;;
16416;SDS011;8317;52.186;5.688;2022-10-16T08:46:34;4.63;;;3.03;;
16416;SDS011;8317;52.186;5.688;2022-10-16T08:49:08;6.95;;;2.97;;
16416;SDS011;8317;52.186;5.688;2022-10-16T08:51:38;4.95;;;2.33;;
16416;SDS011;8317;52.186;5.688;2022-10-16T08:54:21;6.00;;;2.95;;
16416;SDS011;8317;52.186;5.688;2022-10-16T08:56:54;12.73;;;2.70;;
16416;SDS011;8317;52.186;5.688;2022-10-16T08:59:23;5.78;;;2.60;;
16416;SDS011;8317;52.186;5.688;2022-10-16T09:01:50;5.40;;;2.60;;
16416;SDS011;8317;52.186;5.688;2022-10-16T09:07:29;8.18;;;2.42;;
16416;SDS011;8317;52.186;5.688;2022-10-16T09:10:12;4.07;;;2.38;;
16416;SDS011;8317;52.186;5.688;2022-10-16T09:12:49;7.60;;;2.60;;
16416;SDS011;8317;52.186;5.688;2022-10-16T09:15:26;7.70;;;2.40;;
16416;SDS011;8317;52.186;5.688;2022-10-16T09:18:00;5.13;;;2.25;;
16416;SDS011;8317;52.186;5.688;2022-10-16T09:20:38;7.68;;;2.55;;
16416;SDS011;8317;52.186;5.688;2022-10-16T09:23:14;8.52;;;2.58;;
16416;SDS011;8317;52.186;5.688;2022-10-16T09:25:44;4.20;;;2.70;;
16416;SDS011;8317;52.186;5.688;2022-10-16T09:28:14;10.02;;;2.40;;
16416;SDS011;8317;52.186;5.688;2022-10-16T09:30:43;6.75;;;2.38;;
16416;SDS011;8317;52.186;5.688;2022-10-16T09:33:11;10.05;;;2.53;;
16416;SDS011;8317;52.186;5.688;2022-10-16T09:35:39;11.43;;;2.65;;
16416;SDS011;8317;52.186;5.688;2022-10-16T09:38:08;9.05;;;2.35;;
16416;SDS011;8317;52.186;5.688;2022-10-16T09:40:46;5.25;;;2.20;;
16416;SDS011;8317;52.186;5.688;2022-10-16T09:43:18;8.98;;;2.70;;
16416;SDS011;8317;52.186;5.688;2022-10-16T09:45:56;10.00;;;2.17;;
16416;SDS011;8317;52.186;5.688;2022-10-16T09:48:25;6.15;;;2.10;;
16416;SDS011;8317;52.186;5.688;2022-10-16T09:50:57;10.57;;;2.30;;
16416;SDS011;8317;52.186;5.688;2022-10-16T09:53:25;9.50;;;2.05;;
16416;SDS011;8317;52.186;5.688;2022-10-16T09:56:04;9.75;;;2.30;;
16416;SDS011;8317;52.186;5.688;2022-10-16T09:58:31;10.23;;;2.53;;
16416;SDS011;8317;52.186;5.688;2022-10-16T10:01:00;9.30;;;2.00;;
16416;SDS011;8317;52.186;5.688;2022-10-16T10:03:33;8.20;;;2.22;;
16416;SDS011;8317;52.186;5.688;2022-10-16T10:06:05;8.55;;;2.03;;
16416;SDS011;8317;52.186;5.688;2022-10-16T10:08:52;10.95;;;2.10;;
16416;SDS011;8317;52.186;5.688;2022-10-16T10:11:39;7.97;;;2.30;;
16416;SDS011;8317;52.186;5.688;2022-10-16T10:14:14;15.30;;;2.70;;
16416;SDS011;8317;52.186;5.688;2022-10-16T10:16:52;6.90;;;1.90;;
16416;SDS011;8317;52.186;5.688;2022-10-16T10:19:28;9.95;;;1.95;;
16416;SDS011;8317;52.186;5.688;2022-10-16T10:21:55;13.00;;;2.45;;
16416;SDS011;8317;52.186;5.688;2022-10-16T10:24:22;12.63;;;2.58;;
16416;SDS011;8317;52.186;5.688;2022-10-16T10:26:51;11.98;;;2.88;;
16416;SDS011;8317;52.186;5.688;2022-10-16T10:29:28;8.45;;;2.50;;
16416;SDS011;8317;52.186;5.688;2022-10-16T10:32:08;6.60;;;2.08;;
16416;SDS011;8317;52.186;5.688;2022-10-16T10:34:55;9.00;;;2.42;;
16416;SDS011;8317;52.186;5.688;2022-10-16T10:37:33;6.85;;;1.52;;
16416;SDS011;8317;52.186;5.688;2022-10-16T10:40:15;9.13;;;2.13;;
16416;SDS011;8317;52.186;5.688;2022-10-16T10:42:50;9.38;;;2.20;;
16416;SDS011;8317;52.186;5.688;2022-10-16T10:45:26;11.13;;;2.38;;
16416;SDS011;8317;52.186;5.688;2022-10-16T10:48:02;6.80;;;1.85;;
16416;SDS011;8317;52.186;5.688;2022-10-16T10:50:39;8.82;;;2.25;;
16416;SDS011;8317;52.186;5.688;2022-10-16T10:53:16;7.63;;;2.80;;
16416;SDS011;8317;52.186;5.688;2022-10-16T10:55:51;9.40;;;2.38;;
16416;SDS011;8317;52.186;5.688;2022-10-16T11:01:19;7.63;;;2.10;;
16416;SDS011;8317;52.186;5.688;2022-10-16T11:04:00;8.93;;;2.22;;
16416;SDS011;8317;52.186;5.688;2022-10-16T11:06:46;10.23;;;2.10;;
16416;SDS011;8317;52.186;5.688;2022-10-16T11:09:17;8.00;;;1.90;;
16416;SDS011;8317;52.186;5.688;2022-10-16T11:11:49;8.07;;;2.42;;
16416;SDS011;8317;52.186;5.688;2022-10-16T11:14:21;8.65;;;2.25;;
16416;SDS011;8317;52.186;5.688;2022-10-16T11:16:52;8.73;;;2.10;;
16416;SDS011;8317;52.186;5.688;2022-10-16T11:19:28;14.45;;;2.40;;
16416;SDS011;8317;52.186;5.688;2022-10-16T11:24:40;11.43;;;2.17;;
16416;SDS011;8317;52.186;5.688;2022-10-16T11:27:14;11.07;;;2.58;;
16416;SDS011;8317;52.186;5.688;2022-10-16T11:29:46;10.75;;;2.38;;
16416;SDS011;8317;52.186;5.688;2022-10-16T11:32:22;8.75;;;2.10;;
16416;SDS011;8317;52.186;5.688;2022-10-16T11:34:57;9.25;;;2.17;;
16416;SDS011;8317;52.186;5.688;2022-10-16T11:37:29;10.02;;;2.53;;
16416;SDS011;8317;52.186;5.688;2022-10-16T11:40:03;8.85;;;2.20;;
16416;SDS011;8317;52.186;5.688;2022-10-16T11:42:46;10.18;;;2.30;;
16416;SDS011;8317;52.186;5.688;2022-10-16T11:45:23;10.95;;;2.22;;
16416;SDS011;8317;52.186;5.688;2022-10-16T11:47:54;10.27;;;2.20;;
16416;SDS011;8317;52.186;5.688;2022-10-16T11:50:29;6.93;;;2.13;;
16416;SDS011;8317;52.186;5.688;2022-10-16T11:53:01;11.73;;;2.25;;
16416;SDS011;8317;52.186;5.688;2022-10-16T11:55:36;6.38;;;2.03;;
16416;SDS011;8317;52.186;5.688;2022-10-16T11:58:06;11.45;;;2.45;;
16416;SDS011;8317;52.186;5.688;2022-10-16T12:00:39;13.60;;;2.25;;
16416;SDS011;8317;52.186;5.688;2022-10-16T12:03:15;8.43;;;2.30;;
16416;SDS011;8317;52.186;5.688;2022-10-16T12:05:52;9.95;;;1.50;;
16416;SDS011;8317;52.186;5.688;2022-10-16T12:08:29;10.35;;;2.30;;
16416;SDS011;8317;52.186;5.688;2022-10-16T12:11:06;6.55;;;1.90;;
16416;SDS011;8317;52.186;5.688;2022-10-16T12:13:35;12.15;;;1.88;;
16416;SDS011;8317;52.186;5.688;2022-10-16T12:16:04;7.43;;;1.60;;
16416;SDS011;8317;52.186;5.688;2022-10-16T12:18:32;6.75;;;1.60;;
16416;SDS011;8317;52.186;5.688;2022-10-16T12:21:01;8.95;;;2.00;;
16416;SDS011;8317;52.186;5.688;2022-10-16T12:23:32;6.43;;;1.58;;
16416;SDS011;8317;52.186;5.688;2022-10-16T12:25:59;7.65;;;1.70;;
16416;SDS011;8317;52.186;5.688;2022-10-16T12:28:28;3.80;;;1.40;;
16416;SDS011;8317;52.186;5.688;2022-10-16T12:30:58;10.00;;;1.98;;
16416;SDS011;8317;52.186;5.688;2022-10-16T12:33:26;7.03;;;2.20;;
16416;SDS011;8317;52.186;5.688;2022-10-16T12:35:56;7.18;;;2.00;;
16416;SDS011;8317;52.186;5.688;2022-10-16T12:38:27;6.95;;;1.88;;
16416;SDS011;8317;52.186;5.688;2022-10-16T12:40:58;8.18;;;2.15;;
16416;SDS011;8317;52.186;5.688;2022-10-16T12:43:34;4.63;;;1.40;;
16416;SDS011;8317;52.186;5.688;2022-10-16T12:46:04;7.38;;;1.95;;
16416;SDS011;8317;52.186;5.688;2022-10-16T12:48:46;9.73;;;2.20;;
16416;SDS011;8317;52.186;5.688;2022-10-16T12:51:21;8.98;;;2.05;;
16416;SDS011;8317;52.186;5.688;2022-10-16T12:54:01;7.07;;;1.60;;
16416;SDS011;8317;52.186;5.688;2022-10-16T12:56:36;12.80;;;2.53;;
16416;SDS011;8317;52.186;5.688;2022-10-16T12:59:18;7.45;;;1.58;;
16416;SDS011;8317;52.186;5.688;2022-10-16T13:01:58;7.22;;;1.80;;
16416;SDS011;8317;52.186;5.688;2022-10-16T13:04:47;9.00;;;1.80;;
16416;SDS011;8317;52.186;5.688;2022-10-16T13:07:31;7.60;;;1.80;;
16416;SDS011;8317;52.186;5.688;2022-10-16T13:10:14;9.20;;;2.00;;
16416;SDS011;8317;52.186;5.688;2022-10-16T13:12:59;7.03;;;1.52;;
16416;SDS011;8317;52.186;5.688;2022-10-16T13:15:47;7.20;;;1.65;;
16416;SDS011;8317;52.186;5.688;2022-10-16T13:18:26;4.63;;;1.55;;
16416;SDS011;8317;52.186;5.688;2022-10-16T13:21:04;6.63;;;1.67;;
16416;SDS011;8317;52.186;5.688;2022-10-16T13:23:42;5.00;;;1.75;;
16416;SDS011;8317;52.186;5.688;2022-10-16T13:26:21;6.45;;;1.33;;
16416;SDS011;8317;52.186;5.688;2022-10-16T13:28:58;13.38;;;2.25;;
16416;SDS011;8317;52.186;5.688;2022-10-16T13:31:26;9.05;;;2.35;;
16416;SDS011;8317;52.186;5.688;2022-10-16T13:33:55;10.70;;;2.05;;
16416;SDS011;8317;52.186;5.688;2022-10-16T13:36:24;9.80;;;2.30;;
16416;SDS011;8317;52.186;5.688;2022-10-16T13:39:00;13.88;;;2.80;;
16416;SDS011;8317;52.186;5.688;2022-10-16T13:41:38;6.40;;;1.60;;
16416;SDS011;8317;52.186;5.688;2022-10-16T13:44:07;8.63;;;1.90;;
16416;SDS011;8317;52.186;5.688;2022-10-16T13:46:40;7.47;;;1.80;;
16416;SDS011;8317;52.186;5.688;2022-10-16T13:49:11;8.25;;;1.92;;
16416;SDS011;8317;52.186;5.688;2022-10-16T13:51:39;13.15;;;1.83;;
16416;SDS011;8317;52.186;5.688;2022-10-16T13:54:07;7.60;;;1.80;;
16416;SDS011;8317;52.186;5.688;2022-10-16T13:56:38;9.02;;;2.58;;
16416;SDS011;8317;52.186;5.688;2022-10-16T13:59:07;8.65;;;1.77;;
16416;SDS011;8317;52.186;5.688;2022-10-16T14:01:50;7.40;;;1.88;;
16416;SDS011;8317;52.186;5.688;2022-10-16T14:04:20;11.23;;;2.30;;
16416;SDS011;8317;52.186;5.688;2022-10-16T14:06:49;9.48;;;1.88;;
16416;SDS011;8317;52.186;5.688;2022-10-16T14:09:19;8.23;;;1.73;;
16416;SDS011;8317;52.186;5.688;2022-10-16T14:11:51;12.15;;;1.92;;
16416;SDS011;8317;52.186;5.688;2022-10-16T14:14:21;11.00;;;1.98;;
16416;SDS011;8317;52.186;5.688;2022-10-16T14:16:49;12.05;;;2.10;;
16416;SDS011;8317;52.186;5.688;2022-10-16T14:19:18;10.80;;;2.10;;
16416;SDS011;8317;52.186;5.688;2022-10-16T14:21:48;12.80;;;1.92;;
16416;SDS011;8317;52.186;5.688;2022-10-16T14:24:22;8.88;;;2.30;;
16416;SDS011;8317;52.186;5.688;2022-10-16T14:26:53;10.73;;;3.13;;
16416;SDS011;8317;52.186;5.688;2022-10-16T14:29:21;11.63;;;2.13;;
16416;SDS011;8317;52.186;5.688;2022-10-16T14:31:56;9.90;;;2.38;;
16416;SDS011;8317;52.186;5.688;2022-10-16T14:34:25;15.32;;;3.30;;
16416;SDS011;8317;52.186;5.688;2022-10-16T14:36:53;14.77;;;2.92;;
16416;SDS011;8317;52.186;5.688;2022-10-16T14:39:21;8.90;;;2.55;;
16416;SDS011;8317;52.186;5.688;2022-10-16T14:41:51;16.55;;;2.45;;
16416;SDS011;8317;52.186;5.688;2022-10-16T14:44:24;10.60;;;2.17;;
16416;SDS011;8317;52.186;5.688;2022-10-16T14:46:55;12.45;;;2.95;;
16416;SDS011;8317;52.186;5.688;2022-10-16T14:49:24;9.43;;;2.03;;
16416;SDS011;8317;52.186;5.688;2022-10-16T14:51:53;10.13;;;2.97;;
16416;SDS011;8317;52.186;5.688;2022-10-16T14:54:20;11.00;;;2.13;;
16416;SDS011;8317;52.186;5.688;2022-10-16T14:56:47;10.55;;;2.38;;
16416;SDS011;8317;52.186;5.688;2022-10-16T14:59:18;9.90;;;2.67;;
16416;SDS011;8317;52.186;5.688;2022-10-16T15:01:51;9.68;;;2.83;;
16416;SDS011;8317;52.186;5.688;2022-10-16T15:04:18;8.40;;;2.50;;
16416;SDS011;8317;52.186;5.688;2022-10-16T15:06:45;12.18;;;2.42;;
16416;SDS011;8317;52.186;5.688;2022-10-16T15:09:12;11.68;;;2.15;;
16416;SDS011;8317;52.186;5.688;2022-10-16T15:11:39;6.82;;;2.25;;
16416;SDS011;8317;52.186;5.688;2022-10-16T15:14:08;12.13;;;2.35;;
16416;SDS011;8317;52.186;5.688;2022-10-16T15:16:38;9.68;;;2.35;;
16416;SDS011;8317;52.186;5.688;2022-10-16T15:19:05;8.82;;;2.45;;
16416;SDS011;8317;52.186;5.688;2022-10-16T15:21:32;10.52;;;2.42;;
16416;SDS011;8317;52.186;5.688;2022-10-16T15:23:59;13.70;;;2.72;;
16416;SDS011;8317;52.186;5.688;2022-10-16T15:26:27;9.05;;;2.00;;